createdAt,value
2024-01-16T00:00:24.753Z,4.95
2024-01-16T00:03:26.272Z,7.85
2024-01-16T00:06:27.849Z,6.10
2024-01-16T00:09:29.318Z,4.85
2024-01-16T00:12:30.745Z,7.88
2024-01-16T00:15:32.207Z,5.80
2024-01-16T00:18:33.899Z,4.65
2024-01-16T00:21:40.471Z,5.13
2024-01-16T00:24:41.878Z,7.93
2024-01-16T00:27:43.793Z,8.98
2024-01-16T00:30:45.313Z,4.78
2024-01-16T00:33:46.795Z,8.48
2024-01-16T00:36:48.245Z,4.82
2024-01-16T00:39:49.643Z,4.90
2024-01-16T00:42:51.149Z,7.07
2024-01-16T00:45:52.757Z,4.53
2024-01-16T00:48:54.314Z,6.88
2024-01-16T00:51:55.798Z,4.93
2024-01-16T00:54:57.174Z,5.30
2024-01-16T00:57:58.586Z,5.28
2024-01-16T01:01:00.035Z,4.78
2024-01-16T01:04:01.553Z,6.70
2024-01-16T01:07:03.130Z,6.28
2024-01-16T01:10:04.758Z,3.40
2024-01-16T01:13:06.158Z,4.85
2024-01-16T01:16:07.551Z,5.75
2024-01-16T01:19:09.044Z,4.22
2024-01-16T01:22:10.461Z,4.55
2024-01-16T01:25:12.717Z,8.15
2024-01-16T01:28:14.105Z,5.57
2024-01-16T01:31:15.514Z,5.28
2024-01-16T01:34:17.363Z,6.07
2024-01-16T01:37:18.872Z,3.97
2024-01-16T01:40:20.268Z,9.35
2024-01-16T01:43:24.315Z,12.80
2024-01-16T01:46:26.314Z,6.07
2024-01-16T01:49:28.610Z,4.63
2024-01-16T01:52:32.932Z,4.55
2024-01-16T01:55:34.655Z,4.50
2024-01-16T01:58:39.175Z,6.10
2024-01-16T02:01:41.414Z,5.78
2024-01-16T02:04:45.027Z,5.68
2024-01-16T02:07:47.196Z,4.70
2024-01-16T02:10:50.954Z,4.93
2024-01-16T02:13:52.791Z,8.40
2024-01-16T02:16:54.206Z,6.55
2024-01-16T02:19:55.645Z,4.70
2024-01-16T02:22:59.774Z,7.20
2024-01-16T02:26:01.920Z,6.38
2024-01-16T02:29:05.573Z,7.40
2024-01-16T02:32:06.973Z,5.60
2024-01-16T02:35:08.552Z,6.47
2024-01-16T02:38:10.101Z,6.70
2024-01-16T02:41:14.602Z,5.45
2024-01-16T02:44:16.009Z,8.45
2024-01-16T02:47:17.632Z,6.93
2024-01-16T02:50:19.092Z,4.10
2024-01-16T02:53:20.550Z,5.03
2024-01-16T02:56:21.977Z,5.53
2024-01-16T02:59:23.609Z,8.15
2024-01-16T03:02:25.056Z,7.65
2024-01-16T03:05:26.478Z,6.70
2024-01-16T03:08:28.015Z,7.35
2024-01-16T03:11:31.360Z,8.25
2024-01-16T03:14:35.425Z,6.93
2024-01-16T03:17:36.984Z,10.27
2024-01-16T03:20:38.514Z,5.07
2024-01-16T03:23:39.986Z,11.93
2024-01-16T03:26:41.772Z,10.05
2024-01-16T03:29:43.322Z,9.07
2024-01-16T03:32:44.959Z,7.70
2024-01-16T03:35:46.561Z,7.93
2024-01-16T03:38:48.129Z,6.75
2024-01-16T03:41:49.633Z,8.77
2024-01-16T03:44:51.099Z,6.20
2024-01-16T03:47:52.598Z,4.88
2024-01-16T03:50:55.620Z,6.35
2024-01-16T03:53:57.167Z,6.97
2024-01-16T03:56:58.597Z,6.45
2024-01-16T04:00:00.048Z,5.63
2024-01-16T04:03:01.447Z,13.05
2024-01-16T04:06:03.043Z,6.55
2024-01-16T04:09:05.776Z,7.32
2024-01-16T04:12:09.202Z,7.25
2024-01-16T04:15:10.737Z,5.30
2024-01-16T04:18:12.243Z,11.13
2024-01-16T04:21:13.948Z,8.82
2024-01-16T04:24:16.011Z,10.00
2024-01-16T04:27:17.432Z,6.68
2024-01-16T04:30:21.298Z,10.48
2024-01-16T04:33:22.863Z,9.25
2024-01-16T04:36:24.733Z,7.20
2024-01-16T04:39:26.107Z,9.65
2024-01-16T04:42:27.511Z,9.55
2024-01-16T04:45:29.011Z,11.15
2024-01-16T04:48:30.480Z,6.47
2024-01-16T04:51:31.936Z,10.57
2024-01-16T04:54:33.600Z,13.23
2024-01-16T04:57:35.005Z,11.48
2024-01-16T05:00:36.455Z,11.90
2024-01-16T05:03:38.010Z,9.00
2024-01-16T05:06:40.381Z,8.70
2024-01-16T05:09:42.080Z,8.43
2024-01-16T05:12:43.521Z,7.68
2024-01-16T05:15:45.006Z,8.52
2024-01-16T05:18:46.467Z,5.85
2024-01-16T05:21:47.935Z,10.73
2024-01-16T05:24:49.315Z,11.80
2024-01-16T05:27:50.724Z,10.98
2024-01-16T05:30:52.273Z,13.20
2024-01-16T05:33:54.291Z,12.43
2024-01-16T05:36:55.954Z,7.38
2024-01-16T05:39:57.443Z,6.53
2024-01-16T05:42:58.879Z,7.30
2024-01-16T05:46:00.282Z,9.85
2024-01-16T05:49:02.217Z,12.40
2024-01-16T05:52:03.820Z,11.80
2024-01-16T05:55:06.077Z,6.63
2024-01-16T05:58:07.484Z,12.10
2024-01-16T06:01:08.940Z,7.03
2024-01-16T06:04:11.947Z,10.18
2024-01-16T06:07:14.973Z,8.88
2024-01-16T06:10:16.640Z,9.50
2024-01-16T06:13:21.203Z,12.02
2024-01-16T06:16:22.611Z,9.82
2024-01-16T06:19:24.054Z,8.82
2024-01-16T06:22:25.496Z,12.02
2024-01-16T06:25:26.918Z,7.70
2024-01-16T06:28:28.372Z,5.57
2024-01-16T06:31:29.872Z,7.55
2024-01-16T06:34:31.802Z,7.57
2024-01-16T06:37:33.281Z,8.95
2024-01-16T06:40:34.658Z,6.28
2024-01-16T06:43:36.200Z,7.75
2024-01-16T06:46:37.611Z,11.88
2024-01-16T06:49:39.166Z,7.22
2024-01-16T06:52:40.593Z,11.65
2024-01-16T06:55:42.036Z,9.80
2024-01-16T06:58:43.432Z,11.50
2024-01-16T07:01:45.460Z,6.97
2024-01-16T07:04:46.992Z,12.15
2024-01-16T07:07:48.560Z,5.28
2024-01-16T07:10:49.967Z,9.68
2024-01-16T07:13:51.404Z,10.02
2024-01-16T07:16:52.848Z,10.93
2024-01-16T07:19:54.315Z,9.68
2024-01-16T07:22:55.762Z,10.55
2024-01-16T07:25:57.178Z,9.75
2024-01-16T07:28:58.595Z,10.93
2024-01-16T07:32:00.251Z,6.47
2024-01-16T07:35:04.132Z,8.40
2024-01-16T07:38:05.972Z,5.90
2024-01-16T07:41:07.441Z,8.15
2024-01-16T07:44:08.971Z,12.82
2024-01-16T07:47:10.513Z,10.52
2024-01-16T07:50:12.038Z,9.95
2024-01-16T07:53:13.514Z,10.90
2024-01-16T07:56:15.036Z,12.20
2024-01-16T07:59:16.458Z,7.53
2024-01-16T08:02:18.381Z,15.27
2024-01-16T08:05:22.868Z,9.52
2024-01-16T08:08:24.504Z,10.02
2024-01-16T08:11:26.034Z,13.00
2024-01-16T08:14:27.549Z,7.40
2024-01-16T08:17:29.081Z,10.10
2024-01-16T08:20:30.581Z,14.50
2024-01-16T08:23:32.099Z,9.60
2024-01-16T08:26:33.598Z,7.90
2024-01-16T08:29:35.458Z,9.93
2024-01-16T08:32:36.953Z,9.00
2024-01-16T08:35:38.577Z,7.35
2024-01-16T08:38:40.123Z,7.13
2024-01-16T08:41:41.676Z,11.93
2024-01-16T08:44:43.246Z,8.18
2024-01-16T08:47:44.914Z,10.85
2024-01-16T08:50:46.845Z,8.25
2024-01-16T08:53:48.368Z,10.10
2024-01-16T08:56:50.296Z,8.77
2024-01-16T08:59:51.807Z,8.32
2024-01-16T09:02:53.464Z,11.52
2024-01-16T09:05:55.109Z,7.72
2024-01-16T09:08:57.094Z,12.35
2024-01-16T09:11:59.069Z,11.65
2024-01-16T09:15:00.660Z,8.15
2024-01-16T09:18:02.838Z,9.40
2024-01-16T09:21:04.649Z,8.88
2024-01-16T09:24:06.249Z,8.82
2024-01-16T09:27:07.950Z,8.63
2024-01-16T09:30:09.877Z,10.13
2024-01-16T09:33:12.199Z,11.70
2024-01-16T09:36:13.727Z,9.63
2024-01-16T09:39:18.098Z,8.63
2024-01-16T09:42:21.190Z,7.55
2024-01-16T09:45:23.027Z,10.13
2024-01-16T09:48:25.528Z,9.85
2024-01-16T09:51:27.217Z,7.72
2024-01-16T09:54:28.669Z,8.10
2024-01-16T09:57:31.007Z,10.82
2024-01-16T10:00:33.362Z,10.38
2024-01-16T10:03:36.124Z,7.18
2024-01-16T10:06:40.371Z,12.75
2024-01-16T10:09:42.050Z,9.18
2024-01-16T10:12:44.650Z,10.30
2024-01-16T10:15:50.832Z,10.20
2024-01-16T10:19:05.456Z,7.07
2024-01-16T10:22:10.021Z,12.38
2024-01-16T10:25:13.546Z,9.88
2024-01-16T10:28:25.378Z,8.73
2024-01-16T10:31:31.221Z,8.77
2024-01-16T10:34:32.894Z,7.70
2024-01-16T10:37:50.056Z,6.78
2024-01-16T10:41:06.998Z,7.70
2024-01-16T10:44:09.037Z,6.72
2024-01-16T10:47:13.019Z,5.28
2024-01-16T10:50:14.735Z,8.10
2024-01-16T10:53:20.029Z,9.82
2024-01-16T10:56:21.692Z,9.07
2024-01-16T10:59:27.074Z,13.93
2024-01-16T11:02:39.568Z,9.52
2024-01-16T11:05:42.272Z,10.95
2024-01-16T11:08:47.066Z,7.20
2024-01-16T11:11:51.250Z,7.90
2024-01-16T11:14:53.301Z,10.40
2024-01-16T11:17:56.542Z,7.45
2024-01-16T11:21:06.119Z,6.38
2024-01-16T11:24:10.428Z,7.35
2024-01-16T11:27:23.318Z,11.68
2024-01-16T11:30:35.249Z,6.20
2024-01-16T11:33:36.690Z,9.13
2024-01-16T11:36:56.371Z,9.13
2024-01-16T11:40:21.783Z,7.53
2024-01-16T11:43:35.782Z,9.07
2024-01-16T11:47:01.479Z,6.80
2024-01-16T11:53:37.703Z,11.63
2024-01-16T11:56:45.593Z,6.82
2024-01-16T11:59:48.049Z,10.00
2024-01-16T12:03:02.742Z,6.25
2024-01-16T12:06:07.553Z,7.38
2024-01-16T12:12:16.764Z,6.60
2024-01-16T12:15:20.072Z,10.32
2024-01-16T12:18:30.915Z,7.95
2024-01-16T12:21:41.892Z,11.60
2024-01-16T12:24:43.714Z,7.35
2024-01-16T12:27:45.159Z,6.63
2024-01-16T12:30:50.988Z,20.08
2024-01-16T12:33:58.375Z,4.57
2024-01-16T12:37:07.955Z,8.90
2024-01-16T12:40:09.887Z,9.80
2024-01-16T12:43:11.467Z,4.88
2024-01-16T12:46:13.089Z,6.10
2024-01-16T12:49:14.650Z,5.88
2024-01-16T12:52:21.808Z,9.18
2024-01-16T12:55:24.566Z,3.28
2024-01-16T12:58:28.998Z,7.72
2024-01-16T13:01:38.896Z,7.60
2024-01-16T13:04:41.920Z,3.70
2024-01-16T13:07:43.336Z,8.63
2024-01-16T13:10:44.728Z,5.50
2024-01-16T13:13:48.957Z,5.85
2024-01-16T13:16:56.544Z,10.13
2024-01-16T13:19:58.005Z,5.85
2024-01-16T13:22:59.520Z,5.85
2024-01-16T13:26:01.370Z,4.78
2024-01-16T13:29:02.842Z,5.47
2024-01-16T13:32:05.535Z,6.68
2024-01-16T13:35:10.628Z,7.80
2024-01-16T13:41:14.248Z,9.82
2024-01-16T13:44:15.754Z,5.07
2024-01-16T13:47:22.966Z,9.93
2024-01-16T13:50:25.126Z,7.40
2024-01-16T13:53:26.676Z,7.13
2024-01-16T13:56:46.042Z,9.60
2024-01-16T13:59:49.556Z,5.18
2024-01-16T14:02:51.964Z,9.55
2024-01-16T14:05:56.419Z,6.55
2024-01-16T14:08:57.844Z,6.22
2024-01-16T14:11:59.310Z,5.88
2024-01-16T14:15:01.803Z,7.45
2024-01-16T14:18:10.582Z,4.50
2024-01-16T14:21:12.070Z,4.63
2024-01-16T14:24:13.663Z,4.53
2024-01-16T14:27:16.675Z,3.90
2024-01-16T14:30:19.754Z,7.07
2024-01-16T14:33:21.339Z,3.00
2024-01-16T14:36:22.801Z,6.20
2024-01-16T14:39:26.989Z,6.38
2024-01-16T14:42:29.238Z,4.18
2024-01-16T14:45:32.585Z,9.15
2024-01-16T14:48:34.110Z,3.30
2024-01-16T14:51:36.466Z,6.30
2024-01-16T14:54:37.925Z,4.90
2024-01-16T14:57:47.689Z,3.88
2024-01-16T15:00:49.775Z,6.15
2024-01-16T15:03:51.310Z,7.28
2024-01-16T15:06:53.895Z,14.38
2024-01-16T15:09:56.270Z,12.77
2024-01-16T15:12:57.768Z,13.95
2024-01-16T15:15:59.200Z,11.88
2024-01-16T15:19:00.872Z,4.93
2024-01-16T15:22:02.465Z,3.90
2024-01-16T15:25:06.153Z,6.93
2024-01-16T15:28:07.668Z,4.97
2024-01-16T15:31:09.929Z,5.85
2024-01-16T15:34:14.785Z,6.30
2024-01-16T15:37:18.290Z,8.68
2024-01-16T15:40:20.369Z,4.65
2024-01-16T15:43:21.958Z,4.80
2024-01-16T15:46:24.888Z,8.93
2024-01-16T15:49:27.393Z,8.07
2024-01-16T15:52:29.285Z,8.55
2024-01-16T15:55:30.712Z,9.50
2024-01-16T15:58:33.524Z,8.23
2024-01-16T16:01:35.004Z,6.97
2024-01-16T16:04:38.075Z,6.80
2024-01-16T16:07:39.614Z,4.28
2024-01-16T16:10:42.466Z,4.00
2024-01-16T16:13:44.073Z,4.45
2024-01-16T16:16:48.336Z,5.38
2024-01-16T16:19:50.546Z,7.07
2024-01-16T16:22:52.191Z,9.30
2024-01-16T16:25:53.664Z,5.68
2024-01-16T16:28:55.076Z,5.75
2024-01-16T16:31:57.885Z,7.63
2024-01-16T16:34:59.337Z,6.38
2024-01-16T16:38:01.277Z,9.43
2024-01-16T16:41:03.137Z,5.65
2024-01-16T16:44:04.703Z,10.32
2024-01-16T16:47:06.106Z,5.63
2024-01-16T16:50:07.764Z,10.00
2024-01-16T16:53:10.024Z,9.55
2024-01-16T16:56:13.272Z,8.48
2024-01-16T16:59:14.814Z,10.02
2024-01-16T17:02:16.313Z,8.82
2024-01-16T17:05:20.310Z,6.32
2024-01-16T17:08:22.049Z,14.03
2024-01-16T17:11:24.889Z,7.93
2024-01-16T17:14:26.373Z,4.13
2024-01-16T17:17:30.135Z,11.77
2024-01-16T17:20:32.841Z,5.93
2024-01-16T17:23:35.210Z,9.25
2024-01-16T17:26:36.975Z,9.77
2024-01-16T17:29:39.753Z,9.82
2024-01-16T17:32:41.448Z,11.85
2024-01-16T17:35:43.061Z,33.05
2024-01-16T17:38:45.509Z,36.92
2024-01-16T17:41:47.303Z,24.77
2024-01-16T17:44:50.162Z,15.85
2024-01-16T17:47:52.087Z,12.15
2024-01-16T17:50:53.786Z,9.18
2024-01-16T17:53:55.512Z,9.52
2024-01-16T17:56:57.800Z,15.05
2024-01-16T17:59:59.361Z,12.20
2024-01-16T18:03:01.177Z,10.57
2024-01-16T18:06:06.350Z,10.10
2024-01-16T18:09:11.135Z,14.95
2024-01-16T18:12:12.778Z,12.98
2024-01-16T18:15:14.502Z,10.32
2024-01-16T18:18:17.232Z,10.25
2024-01-16T18:21:18.979Z,11.48
2024-01-16T18:24:22.292Z,14.35
2024-01-16T18:27:23.735Z,14.10
2024-01-16T18:30:27.598Z,12.38
2024-01-16T18:33:29.299Z,10.32
2024-01-16T18:36:30.875Z,13.90
2024-01-16T18:39:32.910Z,20.48
2024-01-16T18:42:34.319Z,27.17
2024-01-16T18:45:35.819Z,21.75
2024-01-16T18:48:37.396Z,12.85
2024-01-16T18:51:38.971Z,25.92
2024-01-16T18:54:41.185Z,14.13
2024-01-16T18:57:43.533Z,16.48
2024-01-16T19:00:45.623Z,24.02
2024-01-16T19:03:49.407Z,17.48
2024-01-16T19:06:52.900Z,14.80
2024-01-16T19:09:54.379Z,16.55
2024-01-16T19:12:56.514Z,15.75
2024-01-16T19:15:57.940Z,14.27
2024-01-16T19:19:00.114Z,20.00
2024-01-16T19:22:01.793Z,16.73
2024-01-16T19:25:03.518Z,20.20
2024-01-16T19:28:05.085Z,18.98
2024-01-16T19:31:06.762Z,16.00
2024-01-16T19:34:10.878Z,13.40
2024-01-16T19:37:12.382Z,18.58
2024-01-16T19:40:17.899Z,16.50
2024-01-16T19:43:20.590Z,20.13
2024-01-16T19:46:21.989Z,24.33
2024-01-16T19:49:23.422Z,29.65
2024-01-16T19:52:24.834Z,22.33
2024-01-16T19:55:26.234Z,15.75
2024-01-16T19:58:27.671Z,21.50
2024-01-16T20:01:31.572Z,21.38
2024-01-16T20:04:34.015Z,20.27
2024-01-16T20:07:35.647Z,17.75
2024-01-16T20:10:39.897Z,17.98
2024-01-16T20:13:41.642Z,24.80
2024-01-16T20:16:43.215Z,15.98
2024-01-16T20:19:44.774Z,21.58
2024-01-16T20:22:46.293Z,15.32
2024-01-16T20:25:47.769Z,17.13
2024-01-16T20:28:52.090Z,14.82
2024-01-16T20:31:53.633Z,15.88
2024-01-16T20:34:55.557Z,9.70
2024-01-16T20:37:57.075Z,16.83
2024-01-16T20:40:58.479Z,9.07
2024-01-16T20:43:59.957Z,13.25
2024-01-16T20:47:02.019Z,9.25
2024-01-16T20:50:06.319Z,10.05
2024-01-16T20:53:07.763Z,8.90
2024-01-16T20:56:09.379Z,9.38
2024-01-16T20:59:12.475Z,12.65
2024-01-16T21:02:13.906Z,17.02
2024-01-16T21:05:15.518Z,14.35
2024-01-16T21:08:17.114Z,12.75
2024-01-16T21:11:18.537Z,14.45
2024-01-16T21:14:20.756Z,11.38
2024-01-16T21:17:23.911Z,10.77
2024-01-16T21:20:26.171Z,10.10
2024-01-16T21:23:27.653Z,11.13
2024-01-16T21:26:29.339Z,13.27
2024-01-16T21:29:30.840Z,12.35
2024-01-16T21:32:32.562Z,20.38
2024-01-16T21:35:34.887Z,10.10
2024-01-16T21:38:36.822Z,15.65
2024-01-16T21:41:38.304Z,15.23
2024-01-16T21:44:40.075Z,9.77
2024-01-16T21:47:41.546Z,16.63
2024-01-16T21:50:43.871Z,18.10
2024-01-16T21:53:45.737Z,16.05
2024-01-16T21:56:47.166Z,14.25
2024-01-16T21:59:48.687Z,13.70
2024-01-16T22:02:57.514Z,11.50
2024-01-16T22:05:59.201Z,16.67
2024-01-16T22:09:00.741Z,19.58
2024-01-16T22:12:02.316Z,15.93
2024-01-16T22:15:04.236Z,16.23
2024-01-16T22:18:05.855Z,15.98
2024-01-16T22:21:08.175Z,11.30
2024-01-16T22:24:09.693Z,12.43
2024-01-16T22:27:11.150Z,14.27
2024-01-16T22:30:13.444Z,11.80
2024-01-16T22:33:15.066Z,17.77
2024-01-16T22:36:16.721Z,17.33
2024-01-16T22:39:18.787Z,15.40
2024-01-16T22:42:21.609Z,10.18
2024-01-16T22:45:24.167Z,16.90
2024-01-16T22:48:25.866Z,14.20
2024-01-16T22:51:27.336Z,14.40
2024-01-16T22:54:28.706Z,19.48
2024-01-16T22:57:30.131Z,12.73
2024-01-16T23:00:31.813Z,8.00
2024-01-16T23:03:33.299Z,19.20
2024-01-16T23:06:34.728Z,8.32
2024-01-16T23:09:36.246Z,14.10
2024-01-16T23:12:37.656Z,16.13
2024-01-16T23:15:39.310Z,18.45
2024-01-16T23:18:41.295Z,15.20
2024-01-16T23:21:42.796Z,20.20
2024-01-16T23:24:44.202Z,11.88
2024-01-16T23:27:45.680Z,12.18
2024-01-16T23:30:47.136Z,17.60
2024-01-16T23:33:48.688Z,11.07
2024-01-16T23:36:50.489Z,16.90
2024-01-16T23:39:55.145Z,11.98
2024-01-16T23:42:58.260Z,9.18
2024-01-16T23:46:01.732Z,14.57
2024-01-16T23:49:03.303Z,15.80
2024-01-16T23:52:06.775Z,9.82
2024-01-16T23:55:10.247Z,15.38
2024-01-16T23:58:11.987Z,18.70
